createdAt,value
2022-09-15T00:00:55.135Z,18.63
2022-09-15T00:03:23.422Z,18.60
2022-09-15T00:05:51.927Z,18.70
2022-09-15T00:08:18.466Z,18.65
2022-09-15T00:10:58.355Z,18.60
2022-09-15T00:13:25.641Z,18.62
2022-09-15T00:15:52.300Z,18.46
2022-09-15T00:18:19.097Z,18.39
2022-09-15T00:20:46.019Z,18.34
2022-09-15T00:23:14.396Z,18.13
2022-09-15T00:25:45.814Z,18.10
2022-09-15T00:28:17.090Z,18.19
2022-09-15T00:30:46.195Z,18.26
2022-09-15T00:33:14.864Z,18.29
2022-09-15T00:35:45.862Z,18.04
2022-09-15T00:38:17.674Z,18.18
2022-09-15T00:40:49.656Z,17.92
2022-09-15T00:43:18.293Z,18.02
2022-09-15T00:45:46.172Z,17.92
2022-09-15T00:48:17.317Z,18.11
2022-09-15T00:50:49.822Z,18.11
2022-09-15T00:53:19.232Z,18.08
2022-09-15T00:55:50.797Z,18.18
2022-09-15T00:58:27.017Z,18.30
2022-09-15T01:01:00.063Z,18.18
2022-09-15T01:03:29.981Z,18.19
2022-09-15T01:06:09.101Z,18.22
2022-09-15T01:08:52.228Z,18.15
2022-09-15T01:11:18.978Z,18.26
2022-09-15T01:13:49.023Z,18.19
2022-09-15T01:19:37.243Z,17.97
2022-09-15T01:22:09.585Z,17.91
2022-09-15T01:24:46.776Z,17.76
2022-09-15T01:27:41.096Z,17.79
2022-09-15T01:30:06.149Z,17.77
2022-09-15T01:33:04.418Z,17.73
2022-09-15T01:35:40.175Z,17.62
2022-09-15T01:38:11.180Z,17.53
2022-09-15T01:40:44.816Z,17.36
2022-09-15T01:43:12.812Z,17.38
2022-09-15T01:45:43.208Z,17.36
2022-09-15T01:48:11.040Z,17.51
2022-09-15T01:50:43.109Z,17.56
2022-09-15T01:53:15.481Z,17.44
2022-09-15T01:55:51.983Z,17.39
2022-09-15T01:58:18.488Z,17.05
2022-09-15T02:00:49.894Z,17.20
2022-09-15T02:03:33.799Z,17.05
2022-09-15T02:06:07.218Z,16.98
2022-09-15T02:09:11.121Z,16.99
2022-09-15T02:11:47.988Z,16.96
2022-09-15T02:14:21.881Z,17.08
2022-09-15T02:16:54.177Z,17.06
2022-09-15T02:19:41.139Z,17.32
2022-09-15T02:22:23.684Z,17.18
2022-09-15T02:25:02.961Z,17.34
2022-09-15T02:27:32.249Z,17.35
2022-09-15T02:30:09.828Z,17.30
2022-09-15T02:32:38.473Z,17.15
2022-09-15T02:35:08.059Z,17.20
2022-09-15T02:37:37.291Z,17.22
2022-09-15T02:40:05.563Z,17.14
2022-09-15T02:42:33.295Z,17.13
2022-09-15T02:45:01.145Z,17.17
2022-09-15T02:47:28.522Z,17.20
2022-09-15T02:49:55.633Z,17.23
2022-09-15T02:52:25.844Z,17.23
2022-09-15T02:54:55.409Z,17.32
2022-09-15T02:57:21.978Z,17.32
2022-09-15T03:00:06.794Z,17.30
2022-09-15T03:02:34.005Z,17.45
2022-09-15T03:05:00.633Z,17.57
2022-09-15T03:07:28.468Z,17.65
2022-09-15T03:09:55.309Z,17.70
2022-09-15T03:12:23.050Z,17.71
2022-09-15T03:14:50.411Z,17.69
2022-09-15T03:17:17.902Z,17.85
2022-09-15T03:19:45.392Z,17.76
2022-09-15T03:22:11.928Z,17.74
2022-09-15T03:24:38.883Z,17.86
2022-09-15T03:27:05.850Z,17.93
2022-09-15T03:29:32.352Z,17.92
2022-09-15T03:31:58.904Z,18.08
2022-09-15T03:34:25.470Z,18.11
2022-09-15T03:36:51.966Z,18.04
2022-09-15T03:39:18.475Z,18.03
2022-09-15T03:41:44.976Z,17.79
2022-09-15T03:44:11.484Z,17.91
2022-09-15T03:46:37.994Z,17.95
2022-09-15T03:49:04.509Z,17.80
2022-09-15T03:51:31.073Z,17.91
2022-09-15T03:53:57.572Z,17.96
2022-09-15T03:56:27.461Z,18.13
2022-09-15T03:58:54.445Z,18.04
2022-09-15T04:01:21.329Z,18.09
2022-09-15T04:03:51.138Z,18.14
2022-09-15T04:06:20.934Z,18.09
2022-09-15T04:08:48.697Z,17.91
2022-09-15T04:11:15.865Z,18.01
2022-09-15T04:13:43.351Z,18.02
2022-09-15T04:16:16.553Z,18.12
2022-09-15T04:18:43.462Z,18.14
2022-09-15T04:21:15.985Z,18.16
2022-09-15T04:23:44.326Z,18.15
2022-09-15T04:26:26.151Z,18.17
2022-09-15T04:28:53.116Z,18.07
2022-09-15T04:31:20.482Z,18.12
2022-09-15T04:33:47.350Z,18.07
2022-09-15T04:36:16.967Z,18.17
2022-09-15T04:38:44.575Z,18.03
2022-09-15T04:41:12.176Z,18.15
2022-09-15T04:43:39.354Z,18.27
2022-09-15T04:46:06.589Z,18.29
2022-09-15T04:48:33.747Z,18.23
2022-09-15T04:51:13.618Z,18.24
2022-09-15T04:53:40.853Z,18.09
2022-09-15T04:56:10.820Z,18.20
2022-09-15T04:59:03.126Z,18.19
2022-09-15T05:01:34.093Z,18.20
2022-09-15T05:04:04.656Z,18.14
2022-09-15T05:06:31.226Z,18.14
2022-09-15T05:09:01.113Z,18.17
2022-09-15T05:11:31.127Z,18.08
2022-09-15T05:14:00.681Z,18.20
2022-09-15T05:16:29.292Z,18.35
2022-09-15T05:18:58.100Z,18.38
2022-09-15T05:21:25.890Z,18.29
2022-09-15T05:23:53.396Z,18.25
2022-09-15T05:26:22.599Z,18.36
2022-09-15T05:28:50.124Z,18.18
2022-09-15T05:31:29.181Z,18.46
2022-09-15T05:33:55.750Z,18.51
2022-09-15T05:36:25.258Z,18.37
2022-09-15T05:38:59.529Z,18.35
2022-09-15T05:41:28.402Z,18.36
2022-09-15T05:44:00.659Z,18.29
2022-09-15T05:46:29.197Z,18.26
2022-09-15T05:48:58.269Z,18.47
2022-09-15T05:51:25.030Z,18.36
2022-09-15T05:53:51.855Z,18.43
2022-09-15T05:56:20.165Z,18.37
2022-09-15T05:58:47.912Z,18.42
2022-09-15T06:01:17.549Z,18.51
2022-09-15T06:03:44.584Z,18.58
2022-09-15T06:06:12.166Z,18.55
2022-09-15T06:08:56.885Z,18.74
2022-09-15T06:11:29.919Z,18.73
2022-09-15T06:13:59.273Z,18.78
2022-09-15T06:16:26.789Z,18.67
2022-09-15T06:18:53.955Z,18.80
2022-09-15T06:21:23.765Z,18.93
2022-09-15T06:23:58.852Z,18.99
2022-09-15T06:26:29.249Z,19.16
2022-09-15T06:28:58.469Z,19.26
2022-09-15T06:31:27.280Z,19.36
2022-09-15T06:36:37.882Z,19.41
2022-09-15T06:39:04.945Z,19.27
2022-09-15T06:41:52.419Z,19.43
2022-09-15T06:44:19.517Z,19.65
2022-09-15T06:46:46.523Z,19.67
2022-09-15T06:49:13.064Z,19.83
2022-09-15T06:51:39.822Z,19.86
2022-09-15T06:54:06.537Z,19.90
2022-09-15T06:56:37.631Z,20.05
2022-09-15T06:59:04.842Z,20.20
2022-09-15T07:01:32.227Z,20.29
2022-09-15T07:04:01.223Z,20.44
2022-09-15T07:06:29.852Z,20.47
2022-09-15T07:08:57.158Z,20.51
2022-09-15T07:11:24.076Z,20.45
2022-09-15T07:13:51.198Z,20.36
2022-09-15T07:16:19.414Z,20.43
2022-09-15T07:18:47.308Z,20.34
2022-09-15T07:21:16.656Z,20.46
2022-09-15T07:23:43.998Z,20.62
2022-09-15T07:26:16.068Z,20.73
2022-09-15T07:28:44.886Z,20.83
2022-09-15T07:31:15.684Z,20.98
2022-09-15T07:33:42.436Z,21.15
2022-09-15T07:36:10.162Z,21.22
2022-09-15T07:38:41.600Z,21.30
2022-09-15T07:41:13.543Z,21.44
2022-09-15T07:43:40.561Z,21.55
2022-09-15T07:46:07.505Z,21.70
2022-09-15T07:48:34.128Z,21.85
2022-09-15T07:51:02.799Z,22.09
2022-09-15T07:53:32.081Z,22.43
2022-09-15T07:55:58.672Z,22.47
2022-09-15T07:58:25.525Z,22.44
2022-09-15T08:00:52.231Z,22.44
2022-09-15T08:03:18.955Z,22.49
2022-09-15T08:05:45.945Z,22.56
2022-09-15T08:08:12.852Z,22.66
2022-09-15T08:10:41.256Z,22.78
2022-09-15T08:13:08.206Z,22.66
2022-09-15T08:15:40.685Z,22.78
2022-09-15T08:18:18.486Z,22.99
2022-09-15T08:20:45.130Z,22.97
2022-09-15T08:23:11.719Z,23.14
2022-09-15T08:25:38.859Z,23.37
2022-09-15T08:28:05.650Z,23.57
2022-09-15T08:30:32.256Z,23.74
2022-09-15T08:32:58.771Z,23.84
2022-09-15T08:35:25.294Z,24.00
2022-09-15T08:37:53.795Z,24.09
2022-09-15T08:40:26.771Z,24.12
2022-09-15T08:42:57.746Z,24.22
2022-09-15T08:45:35.816Z,24.16
2022-09-15T08:48:05.887Z,24.05
2022-09-15T08:50:38.879Z,24.05
2022-09-15T08:53:09.721Z,24.08
2022-09-15T08:55:42.910Z,24.18
2022-09-15T08:58:16.555Z,25.26
2022-09-15T09:00:45.641Z,26.28
2022-09-15T09:03:35.580Z,26.90
2022-09-15T09:06:19.941Z,27.93
2022-09-15T09:08:46.409Z,28.52
2022-09-15T09:11:44.934Z,28.13
2022-09-15T09:14:17.186Z,28.15
2022-09-15T09:17:43.727Z,27.90
2022-09-15T09:20:39.563Z,27.76
2022-09-15T09:23:17.861Z,28.68
2022-09-15T09:25:45.076Z,29.90
2022-09-15T09:28:31.966Z,30.17
2022-09-15T09:31:02.958Z,29.87
2022-09-15T09:33:47.803Z,29.11
2022-09-15T09:36:14.782Z,28.46
2022-09-15T09:38:44.898Z,28.02
2022-09-15T09:41:15.349Z,27.53
2022-09-15T09:43:47.655Z,26.97
2022-09-15T09:46:17.639Z,26.20
2022-09-15T09:48:50.179Z,25.71
2022-09-15T09:51:36.242Z,25.41
2022-09-15T09:54:16.565Z,25.14
2022-09-15T09:56:44.535Z,25.15
2022-09-15T09:59:41.478Z,25.07
2022-09-15T10:02:11.017Z,25.34
2022-09-15T10:04:43.051Z,25.51
2022-09-15T10:07:10.249Z,25.42
2022-09-15T10:09:37.848Z,25.44
2022-09-15T10:12:05.890Z,25.48
2022-09-15T10:14:41.304Z,25.52
2022-09-15T10:17:13.018Z,25.58
2022-09-15T10:19:48.658Z,25.73
2022-09-15T10:22:38.479Z,25.96
2022-09-15T10:25:39.734Z,26.02
2022-09-15T10:28:16.124Z,25.78
2022-09-15T10:31:02.644Z,25.47
2022-09-15T10:33:35.346Z,25.20
2022-09-15T10:36:14.582Z,24.86
2022-09-15T10:38:45.122Z,24.54
2022-09-15T10:41:31.872Z,24.40
2022-09-15T10:44:27.247Z,24.30
2022-09-15T10:47:17.905Z,24.37
2022-09-15T10:50:15.356Z,24.58
2022-09-15T10:53:03.718Z,24.66
2022-09-15T10:55:52.221Z,24.69
2022-09-15T10:58:31.564Z,24.50
2022-09-15T11:01:28.605Z,24.45
2022-09-15T11:04:23.430Z,24.29
2022-09-15T11:06:52.751Z,24.07
2022-09-15T11:09:28.931Z,23.77
2022-09-15T11:12:27.072Z,23.87
2022-09-15T11:15:28.021Z,23.96
2022-09-15T11:18:07.661Z,23.94
2022-09-15T11:20:50.770Z,24.08
2022-09-15T11:23:24.482Z,24.13
2022-09-15T11:25:56.999Z,24.53
2022-09-15T11:28:33.935Z,25.33
2022-09-15T11:31:09.045Z,26.65
2022-09-15T11:33:46.361Z,27.84
2022-09-15T11:36:31.707Z,28.45
2022-09-15T11:39:11.587Z,28.65
2022-09-15T11:41:51.188Z,28.50
2022-09-15T11:44:20.635Z,28.16
2022-09-15T11:47:08.150Z,27.76
2022-09-15T11:49:40.477Z,27.52
2022-09-15T11:52:18.965Z,27.33
2022-09-15T11:54:54.100Z,26.94
2022-09-15T11:57:27.146Z,26.62
2022-09-15T12:00:01.557Z,26.37
2022-09-15T12:02:31.358Z,26.13
2022-09-15T12:05:17.604Z,25.85
2022-09-15T12:07:56.652Z,25.57
2022-09-15T12:10:46.535Z,25.54
2022-09-15T12:13:21.250Z,25.52
2022-09-15T12:15:49.803Z,25.84
2022-09-15T12:18:46.728Z,25.95
2022-09-15T12:21:19.928Z,25.90
2022-09-15T12:23:52.032Z,25.96
2022-09-15T12:26:24.571Z,25.92
2022-09-15T12:29:05.492Z,25.93
2022-09-15T12:31:34.032Z,25.91
2022-09-15T12:34:36.594Z,25.79
2022-09-15T12:37:13.692Z,25.93
2022-09-15T12:39:45.550Z,26.09
2022-09-15T12:42:24.863Z,27.95
2022-09-15T12:45:16.083Z,29.23
2022-09-15T12:47:54.963Z,29.27
2022-09-15T12:50:27.295Z,29.04
2022-09-15T12:52:59.375Z,28.73
2022-09-15T12:55:35.371Z,28.23
2022-09-15T12:58:09.243Z,27.76
2022-09-15T13:00:42.325Z,27.27
2022-09-15T13:06:22.013Z,26.36
2022-09-15T13:09:09.646Z,26.01
2022-09-15T13:11:47.538Z,25.77
2022-09-15T13:14:21.518Z,25.68
2022-09-15T13:17:16.677Z,25.57
2022-09-15T13:19:49.073Z,25.52
2022-09-15T13:22:33.937Z,25.31
2022-09-15T13:25:07.309Z,25.27
2022-09-15T13:27:54.204Z,25.21
2022-09-15T13:30:20.726Z,25.23
2022-09-15T13:32:59.142Z,25.19
2022-09-15T13:35:51.701Z,25.07
2022-09-15T13:38:58.182Z,24.74
2022-09-15T13:41:58.719Z,24.46
2022-09-15T13:44:56.575Z,24.30
2022-09-15T13:47:31.857Z,24.21
2022-09-15T13:50:29.669Z,24.12
2022-09-15T13:53:17.686Z,24.34
2022-09-15T13:55:45.505Z,24.74
2022-09-15T14:01:06.875Z,25.30
2022-09-15T14:03:39.035Z,25.53
2022-09-15T14:06:24.588Z,25.68
2022-09-15T14:08:55.920Z,25.70
2022-09-15T14:11:30.343Z,26.07
2022-09-15T14:13:58.281Z,26.79
2022-09-15T14:16:24.817Z,27.64
2022-09-15T14:18:54.127Z,27.66
2022-09-15T14:21:23.518Z,28.38
2022-09-15T14:23:52.735Z,28.55
2022-09-15T14:26:23.495Z,28.19
2022-09-15T14:28:56.932Z,27.76
2022-09-15T14:31:37.781Z,27.55
2022-09-15T14:34:14.587Z,27.31
2022-09-15T14:36:41.605Z,27.34
2022-09-15T14:39:11.198Z,27.58
2022-09-15T14:41:40.142Z,27.49
2022-09-15T14:47:14.092Z,27.36
2022-09-15T14:49:40.748Z,27.25
2022-09-15T14:52:22.765Z,27.13
2022-09-15T14:54:50.413Z,27.40
2022-09-15T14:57:21.020Z,27.73
2022-09-15T14:59:53.877Z,27.74
2022-09-15T15:02:39.181Z,27.37
2022-09-15T15:05:15.229Z,27.20
2022-09-15T15:07:43.437Z,27.67
2022-09-15T15:10:29.271Z,27.31
2022-09-15T15:13:09.252Z,27.29
2022-09-15T15:15:38.324Z,27.18
2022-09-15T15:18:30.900Z,26.92
2022-09-15T15:20:58.838Z,26.77
2022-09-15T15:23:26.401Z,26.35
2022-09-15T15:25:54.045Z,26.04
2022-09-15T15:28:33.838Z,26.03
2022-09-15T15:31:17.011Z,26.04
2022-09-15T15:33:47.583Z,25.92
2022-09-15T15:36:14.472Z,25.76
2022-09-15T15:38:47.697Z,25.72
2022-09-15T15:41:36.684Z,25.51
2022-09-15T15:44:25.371Z,25.31
2022-09-15T15:47:00.128Z,24.99
2022-09-15T15:49:29.702Z,24.59
2022-09-15T15:51:57.887Z,24.39
2022-09-15T15:54:25.429Z,24.28
2022-09-15T15:56:53.110Z,24.31
2022-09-15T15:59:20.292Z,24.38
2022-09-15T16:01:50.944Z,24.40
2022-09-15T16:04:17.729Z,24.17
2022-09-15T16:06:45.089Z,24.10
2022-09-15T16:09:21.965Z,23.92
2022-09-15T16:11:48.882Z,23.72
2022-09-15T16:14:15.439Z,23.53
2022-09-15T16:16:42.067Z,23.43
2022-09-15T16:19:08.696Z,23.29
2022-09-15T16:21:39.527Z,23.21
2022-09-15T16:24:10.482Z,23.08
2022-09-15T16:26:38.152Z,23.05
2022-09-15T16:29:05.028Z,23.10
2022-09-15T16:31:33.232Z,22.95
2022-09-15T16:33:59.854Z,22.87
2022-09-15T16:36:27.302Z,22.86
2022-09-15T16:38:53.998Z,22.96
2022-09-15T16:41:23.542Z,22.97
2022-09-15T16:43:50.109Z,22.98
2022-09-15T16:46:17.370Z,23.02
2022-09-15T16:48:47.103Z,23.07
2022-09-15T16:51:25.182Z,23.21
2022-09-15T16:53:53.901Z,23.27
2022-09-15T16:56:20.405Z,23.39
2022-09-15T16:58:46.949Z,23.57
2022-09-15T17:01:18.758Z,23.45
2022-09-15T17:03:45.816Z,23.42
2022-09-15T17:06:14.432Z,23.41
2022-09-15T17:08:41.847Z,23.22
2022-09-15T17:11:16.470Z,23.15
2022-09-15T17:13:44.755Z,23.16
2022-09-15T17:16:13.973Z,23.21
2022-09-15T17:18:40.799Z,23.27
2022-09-15T17:21:10.485Z,23.32
2022-09-15T17:23:38.957Z,23.36
2022-09-15T17:26:13.778Z,23.34
2022-09-15T17:28:41.117Z,23.19
2022-09-15T17:31:16.200Z,23.01
2022-09-15T17:33:43.710Z,22.84
2022-09-15T17:36:10.324Z,22.55
2022-09-15T17:38:36.938Z,22.29
2022-09-15T17:41:03.515Z,22.21
2022-09-15T17:43:31.893Z,22.12
2022-09-15T17:45:58.598Z,21.87
2022-09-15T17:48:25.439Z,21.85
2022-09-15T17:50:52.453Z,21.81
2022-09-15T17:53:26.683Z,21.74
2022-09-15T17:55:55.494Z,21.56
2022-09-15T17:58:23.458Z,21.67
2022-09-15T18:00:50.409Z,21.61
2022-09-15T18:03:22.814Z,21.51
2022-09-15T18:05:50.464Z,21.38
2022-09-15T18:08:17.196Z,21.21
2022-09-15T18:10:44.115Z,21.14
2022-09-15T18:13:15.621Z,21.21
2022-09-15T18:15:42.932Z,21.24
2022-09-15T18:18:14.187Z,21.18
2022-09-15T18:20:41.029Z,21.08
2022-09-15T18:23:12.370Z,20.92
2022-09-15T18:25:39.143Z,20.78
2022-09-15T18:28:09.100Z,20.78
2022-09-15T18:30:41.117Z,20.69
2022-09-15T18:33:13.296Z,20.77
2022-09-15T18:35:41.347Z,20.72
2022-09-15T18:38:08.496Z,20.47
2022-09-15T18:40:37.254Z,20.50
2022-09-15T18:43:06.382Z,20.50
2022-09-15T18:45:32.937Z,20.65
2022-09-15T18:47:59.603Z,20.55
2022-09-15T18:50:26.590Z,20.56
2022-09-15T18:52:53.405Z,20.64
2022-09-15T18:55:21.827Z,20.73
2022-09-15T18:57:49.153Z,20.50
2022-09-15T19:00:19.316Z,20.49
2022-09-15T19:02:46.352Z,20.42
2022-09-15T19:05:15.921Z,20.38
2022-09-15T19:07:46.127Z,20.51
2022-09-15T19:10:16.199Z,20.34
2022-09-15T19:12:43.630Z,20.49
2022-09-15T19:15:12.347Z,20.37
2022-09-15T19:17:40.074Z,20.26
2022-09-15T19:20:09.920Z,20.34
2022-09-15T19:22:40.069Z,20.16
2022-09-15T19:25:11.116Z,20.36
2022-09-15T19:27:39.063Z,20.30
2022-09-15T19:30:07.272Z,20.18
2022-09-15T19:32:34.001Z,20.06
2022-09-15T19:35:00.755Z,19.98
2022-09-15T19:37:27.638Z,20.06
2022-09-15T19:39:54.828Z,20.02
2022-09-15T19:42:21.831Z,20.02
2022-09-15T19:44:52.542Z,19.92
2022-09-15T19:47:19.159Z,19.88
2022-09-15T19:49:45.780Z,19.89
2022-09-15T19:52:12.935Z,19.89
2022-09-15T19:54:39.765Z,19.73
2022-09-15T19:57:08.881Z,19.88
2022-09-15T19:59:35.467Z,19.87
2022-09-15T20:02:02.673Z,19.89
2022-09-15T20:07:13.117Z,19.89
2022-09-15T20:09:39.880Z,19.76
2022-09-15T20:12:09.721Z,19.75
2022-09-15T20:14:37.638Z,19.90
2022-09-15T20:17:04.351Z,19.90
2022-09-15T20:19:30.891Z,19.77
2022-09-15T20:21:59.819Z,19.66
2022-09-15T20:24:26.360Z,19.56
2022-09-15T20:26:52.968Z,19.54
2022-09-15T20:29:20.068Z,19.52
2022-09-15T20:31:47.606Z,19.51
2022-09-15T20:34:14.081Z,19.51
2022-09-15T20:36:40.757Z,19.38
2022-09-15T20:39:10.639Z,19.57
2022-09-15T20:41:40.494Z,19.46
2022-09-15T20:44:11.481Z,19.34
2022-09-15T20:46:41.258Z,19.48
2022-09-15T20:49:08.233Z,19.47
2022-09-15T20:51:35.214Z,19.52
2022-09-15T20:54:03.738Z,19.55
2022-09-15T20:56:31.734Z,19.49
2022-09-15T20:59:00.003Z,19.47
2022-09-15T21:01:32.710Z,19.46
2022-09-15T21:03:59.360Z,19.32
2022-09-15T21:06:27.644Z,19.40
2022-09-15T21:08:56.569Z,19.38
2022-09-15T21:11:24.488Z,19.42
2022-09-15T21:13:51.112Z,19.30
2022-09-15T21:16:21.014Z,19.32
2022-09-15T21:18:48.416Z,19.41
2022-09-15T21:21:23.461Z,19.46
2022-09-15T21:23:53.260Z,19.41
2022-09-15T21:26:22.714Z,19.32
2022-09-15T21:28:49.612Z,19.19
2022-09-15T21:31:21.906Z,19.23
2022-09-15T21:33:49.341Z,19.22
2022-09-15T21:36:19.036Z,19.29
2022-09-15T21:38:45.691Z,19.19
2022-09-15T21:41:15.050Z,19.12
2022-09-15T21:43:43.637Z,18.94
2022-09-15T21:46:12.770Z,19.03
2022-09-15T21:48:42.787Z,19.00
2022-09-15T21:51:12.950Z,18.84
2022-09-15T21:53:39.595Z,18.83
2022-09-15T21:56:09.046Z,18.98
2022-09-15T21:58:42.397Z,19.01
2022-09-15T22:01:20.571Z,18.91
2022-09-15T22:03:55.228Z,18.99
2022-09-15T22:06:29.180Z,19.03
2022-09-15T22:08:56.124Z,19.01
2022-09-15T22:11:23.738Z,19.02
2022-09-15T22:13:50.905Z,19.03
2022-09-15T22:16:21.159Z,19.01
2022-09-15T22:18:48.246Z,18.86
2022-09-15T22:21:26.738Z,18.97
2022-09-15T22:23:59.193Z,18.99
2022-09-15T22:26:28.089Z,18.94
2022-09-15T22:28:56.176Z,18.83
2022-09-15T22:31:24.176Z,18.88
2022-09-15T22:33:51.223Z,18.86
2022-09-15T22:36:27.956Z,18.85
2022-09-15T22:38:56.340Z,18.90
2022-09-15T22:41:25.811Z,18.86
2022-09-15T22:43:52.400Z,18.75
2022-09-15T22:46:19.795Z,18.86
2022-09-15T22:48:46.482Z,18.79
2022-09-15T22:51:15.184Z,18.86
2022-09-15T22:53:41.761Z,18.81
2022-09-15T22:56:19.764Z,18.84
2022-09-15T22:58:48.411Z,18.79
2022-09-15T23:01:21.172Z,18.84
2022-09-15T23:03:52.559Z,18.76
2022-09-15T23:06:20.438Z,18.77
2022-09-15T23:08:54.719Z,18.91
2022-09-15T23:11:22.135Z,18.90
2022-09-15T23:13:49.009Z,18.83
2022-09-15T23:16:18.936Z,18.92
2022-09-15T23:18:48.361Z,18.95
2022-09-15T23:21:17.371Z,18.92
2022-09-15T23:23:47.291Z,18.93
2022-09-15T23:26:13.982Z,18.87
2022-09-15T23:28:40.572Z,18.88
2022-09-15T23:31:08.483Z,18.78
2022-09-15T23:33:35.130Z,18.76
2022-09-15T23:36:03.033Z,18.69
2022-09-15T23:38:30.683Z,18.78
2022-09-15T23:40:57.747Z,18.68
2022-09-15T23:43:24.399Z,18.75
2022-09-15T23:45:51.296Z,18.81
2022-09-15T23:48:20.926Z,18.80
2022-09-15T23:50:47.727Z,18.83
2022-09-15T23:53:14.249Z,18.74
2022-09-15T23:55:40.793Z,18.77
2022-09-15T23:58:07.407Z,18.79
